sensor_id;sensor_type;location;lat;lon;timestamp;pressure;altitude;pressure_sealevel;temperature;humidity
71344;BME280;59146;43.850;25.948;2023-01-15T00:01:25;101863.06;;;4.74;85.76
71344;BME280;59146;43.850;25.948;2023-01-15T00:03:52;101928.38;;;4.93;86.64
71344;BME280;59146;43.850;25.948;2023-01-15T00:06:18;101882.22;;;4.64;86.91
71344;BME280;59146;43.850;25.948;2023-01-15T00:08:44;101859.16;;;4.47;87.16
71344;BME280;59146;43.850;25.948;2023-01-15T00:11:09;101917.09;;;4.98;87.09
71344;BME280;59146;43.850;25.948;2023-01-15T00:13:35;101893.13;;;4.84;86.28
71344;BME280;59146;43.850;25.948;2023-01-15T00:18:30;101931.94;;;4.84;87.74
71344;BME280;59146;43.850;25.948;2023-01-15T00:21:02;101871.19;;;4.51;86.97
71344;BME280;59146;43.850;25.948;2023-01-15T00:23:29;101884.56;;;4.80;86.94
71344;BME280;59146;43.850;25.948;2023-01-15T00:26:18;101946.97;;;5.19;85.87
71344;BME280;59146;43.850;25.948;2023-01-15T00:29:03;101902.56;;;4.87;86.32
71344;BME280;59146;43.850;25.948;2023-01-15T00:31:29;101932.44;;;5.10;86.33
71344;BME280;59146;43.850;25.948;2023-01-15T00:33:55;101900.72;;;4.95;85.96
71344;BME280;59146;43.850;25.948;2023-01-15T00:36:21;101882.84;;;4.78;85.79
71344;BME280;59146;43.850;25.948;2023-01-15T00:38:46;101922.31;;;4.95;85.32
71344;BME280;59146;43.850;25.948;2023-01-15T00:41:12;101894.94;;;4.79;86.21
71344;BME280;59146;43.850;25.948;2023-01-15T00:43:37;101916.31;;;4.92;85.86
71344;BME280;59146;43.850;25.948;2023-01-15T00:46:03;101900.88;;;4.84;85.73
71344;BME280;59146;43.850;25.948;2023-01-15T00:48:30;101939.13;;;5.23;84.74
71344;BME280;59146;43.850;25.948;2023-01-15T00:50:56;101888.72;;;4.92;84.70
71344;BME280;59146;43.850;25.948;2023-01-15T00:53:21;101922.22;;;5.03;85.78
71344;BME280;59146;43.850;25.948;2023-01-15T00:55:46;101917.00;;;5.04;85.96
71344;BME280;59146;43.850;25.948;2023-01-15T00:58:12;101865.53;;;4.83;85.57
71344;BME280;59146;43.850;25.948;2023-01-15T01:00:37;101904.00;;;5.06;85.13
71344;BME280;59146;43.850;25.948;2023-01-15T01:03:03;101865.66;;;4.74;85.35
71344;BME280;59146;43.850;25.948;2023-01-15T01:05:30;101912.16;;;4.80;86.70
71344;BME280;59146;43.850;25.948;2023-01-15T01:07:55;101901.78;;;4.83;86.63
71344;BME280;59146;43.850;25.948;2023-01-15T01:10:21;101894.66;;;4.97;86.46
71344;BME280;59146;43.850;25.948;2023-01-15T01:12:46;101921.00;;;5.23;85.55
71344;BME280;59146;43.850;25.948;2023-01-15T01:15:16;101818.38;;;4.64;85.67
71344;BME280;59146;43.850;25.948;2023-01-15T01:17:42;101859.69;;;4.70;86.56
71344;BME280;59146;43.850;25.948;2023-01-15T01:20:08;101885.38;;;4.82;87.18
71344;BME280;59146;43.850;25.948;2023-01-15T01:22:34;101906.75;;;4.95;86.57
71344;BME280;59146;43.850;25.948;2023-01-15T01:24:59;101834.66;;;4.71;85.87
71344;BME280;59146;43.850;25.948;2023-01-15T01:27:25;101885.44;;;4.78;85.87
71344;BME280;59146;43.850;25.948;2023-01-15T01:29:50;101840.09;;;4.53;86.48
71344;BME280;59146;43.850;25.948;2023-01-15T01:32:15;101892.28;;;4.82;86.98
71344;BME280;59146;43.850;25.948;2023-01-15T01:34:41;101830.69;;;4.49;86.84
71344;BME280;59146;43.850;25.948;2023-01-15T01:37:06;101876.59;;;4.93;85.56
71344;BME280;59146;43.850;25.948;2023-01-15T01:39:32;101837.41;;;4.60;85.63
71344;BME280;59146;43.850;25.948;2023-01-15T01:41:57;101811.69;;;4.50;86.14
71344;BME280;59146;43.850;25.948;2023-01-15T01:46:58;101873.72;;;5.09;85.32
71344;BME280;59146;43.850;25.948;2023-01-15T01:49:25;101865.88;;;5.14;84.38
71344;BME280;59146;43.850;25.948;2023-01-15T01:51:55;101805.19;;;4.78;84.25
71344;BME280;59146;43.850;25.948;2023-01-15T01:54:23;101819.81;;;4.82;84.93
71344;BME280;59146;43.850;25.948;2023-01-15T01:56:50;101869.22;;;5.20;84.57
71344;BME280;59146;43.850;25.948;2023-01-15T01:59:17;101842.66;;;5.09;84.08
71344;BME280;59146;43.850;25.948;2023-01-15T02:01:44;101798.69;;;5.06;82.93
71344;BME280;59146;43.850;25.948;2023-01-15T02:04:10;101889.66;;;5.37;83.61
71344;BME280;59146;43.850;25.948;2023-01-15T02:06:37;101878.84;;;5.15;84.46
71344;BME280;59146;43.850;25.948;2023-01-15T02:09:04;101873.78;;;5.06;84.23
71344;BME280;59146;43.850;25.948;2023-01-15T02:11:30;101857.50;;;5.00;84.38
71344;BME280;59146;43.850;25.948;2023-01-15T02:14:05;101883.81;;;5.27;83.92
71344;BME280;59146;43.850;25.948;2023-01-15T02:16:38;101873.59;;;5.18;83.96
71344;BME280;59146;43.850;25.948;2023-01-15T02:27:37;101849.59;;;5.07;83.60
71344;BME280;59146;43.850;25.948;2023-01-15T02:30:11;101870.47;;;4.97;84.33
71344;BME280;59146;43.850;25.948;2023-01-15T02:32:44;101854.28;;;4.86;84.54
71344;BME280;59146;43.850;25.948;2023-01-15T02:35:17;101846.34;;;4.96;84.17
71344;BME280;59146;43.850;25.948;2023-01-15T02:37:49;101807.72;;;4.82;83.16
71344;BME280;59146;43.850;25.948;2023-01-15T02:40:19;101803.53;;;4.74;83.75
71344;BME280;59146;43.850;25.948;2023-01-15T02:42:47;101818.00;;;4.87;84.07
71344;BME280;59146;43.850;25.948;2023-01-15T02:45:18;101817.75;;;5.01;83.85
71344;BME280;59146;43.850;25.948;2023-01-15T02:47:50;101823.44;;;5.22;82.33
71344;BME280;59146;43.850;25.948;2023-01-15T02:50:19;101839.13;;;5.13;82.23
71344;BME280;59146;43.850;25.948;2023-01-15T02:52:50;101854.03;;;4.99;83.33
71344;BME280;59146;43.850;25.948;2023-01-15T02:55:25;101840.19;;;5.02;83.78
71344;BME280;59146;43.850;25.948;2023-01-15T02:57:54;101873.56;;;5.20;83.88
71344;BME280;59146;43.850;25.948;2023-01-15T03:00:23;101791.94;;;4.98;82.76
71344;BME280;59146;43.850;25.948;2023-01-15T03:02:55;101869.19;;;5.23;82.73
71344;BME280;59146;43.850;25.948;2023-01-15T03:05:31;101800.19;;;4.69;83.85
71344;BME280;59146;43.850;25.948;2023-01-15T03:08:02;101782.94;;;4.68;83.97
71344;BME280;59146;43.850;25.948;2023-01-15T03:13:04;101783.72;;;4.73;82.80
71344;BME280;59146;43.850;25.948;2023-01-15T03:15:54;101884.69;;;5.25;83.20
71344;BME280;59146;43.850;25.948;2023-01-15T03:18:49;101874.53;;;5.14;83.83
71344;BME280;59146;43.850;25.948;2023-01-15T03:21:22;101827.66;;;4.76;83.49
71344;BME280;59146;43.850;25.948;2023-01-15T03:23:52;101852.00;;;5.19;83.50
71344;BME280;59146;43.850;25.948;2023-01-15T03:26:19;101854.50;;;5.22;82.35
71344;BME280;59146;43.850;25.948;2023-01-15T03:28:45;101742.22;;;4.24;83.56
71344;BME280;59146;43.850;25.948;2023-01-15T03:31:12;101856.56;;;5.04;83.95
71344;BME280;59146;43.850;25.948;2023-01-15T03:33:38;101789.63;;;4.81;83.51
71344;BME280;59146;43.850;25.948;2023-01-15T03:36:05;101787.75;;;4.89;82.44
71344;BME280;59146;43.850;25.948;2023-01-15T03:38:36;101846.06;;;5.11;82.60
71344;BME280;59146;43.850;25.948;2023-01-15T03:41:26;101806.03;;;4.81;83.19
71344;BME280;59146;43.850;25.948;2023-01-15T03:47:02;101865.59;;;5.32;83.14
71344;BME280;59146;43.850;25.948;2023-01-15T03:50:03;101857.63;;;5.42;81.41
71344;BME280;59146;43.850;25.948;2023-01-15T03:52:35;101825.56;;;4.99;82.99
71344;BME280;59146;43.850;25.948;2023-01-15T03:55:25;101867.47;;;5.22;83.09
71344;BME280;59146;43.850;25.948;2023-01-15T03:57:59;101872.53;;;5.28;82.69
71344;BME280;59146;43.850;25.948;2023-01-15T04:00:40;101802.31;;;4.96;81.79
71344;BME280;59146;43.850;25.948;2023-01-15T04:03:08;101852.28;;;5.03;82.79
71344;BME280;59146;43.850;25.948;2023-01-15T04:05:36;101843.91;;;4.87;83.46
71344;BME280;59146;43.850;25.948;2023-01-15T04:08:03;101807.94;;;4.70;83.55
71344;BME280;59146;43.850;25.948;2023-01-15T04:10:30;101842.09;;;4.92;83.02
71344;BME280;59146;43.850;25.948;2023-01-15T04:12:55;101874.91;;;4.92;83.51
71344;BME280;59146;43.850;25.948;2023-01-15T04:15:21;101869.81;;;4.84;84.50
71344;BME280;59146;43.850;25.948;2023-01-15T04:17:46;101800.47;;;4.52;84.83
71344;BME280;59146;43.850;25.948;2023-01-15T04:20:11;101840.44;;;4.87;84.16
71344;BME280;59146;43.850;25.948;2023-01-15T04:22:37;101849.88;;;4.92;83.70
71344;BME280;59146;43.850;25.948;2023-01-15T04:25:04;101801.97;;;4.64;83.78
71344;BME280;59146;43.850;25.948;2023-01-15T04:27:30;101823.53;;;4.66;84.59
71344;BME280;59146;43.850;25.948;2023-01-15T04:29:56;101810.56;;;4.66;84.77
71344;BME280;59146;43.850;25.948;2023-01-15T04:32:21;101807.94;;;4.70;84.89
71344;BME280;59146;43.850;25.948;2023-01-15T04:34:46;101829.97;;;4.94;84.27
71344;BME280;59146;43.850;25.948;2023-01-15T04:37:13;101849.00;;;4.92;84.24
71344;BME280;59146;43.850;25.948;2023-01-15T04:39:38;101851.66;;;4.87;84.63
71344;BME280;59146;43.850;25.948;2023-01-15T04:42:03;101850.81;;;4.87;85.04
71344;BME280;59146;43.850;25.948;2023-01-15T04:44:47;101810.44;;;4.75;85.30
71344;BME280;59146;43.850;25.948;2023-01-15T04:47:12;101853.72;;;5.19;84.44
71344;BME280;59146;43.850;25.948;2023-01-15T04:49:38;101788.44;;;4.47;84.57
71344;BME280;59146;43.850;25.948;2023-01-15T04:52:04;101877.41;;;4.96;85.47
71344;BME280;59146;43.850;25.948;2023-01-15T04:54:29;101870.28;;;5.10;85.22
71344;BME280;59146;43.850;25.948;2023-01-15T04:56:55;101692.19;;;4.27;83.81
71344;BME280;59146;43.850;25.948;2023-01-15T04:59:23;101771.34;;;4.37;83.94
71344;BME280;59146;43.850;25.948;2023-01-15T05:01:49;101826.72;;;4.81;84.61
71344;BME280;59146;43.850;25.948;2023-01-15T05:04:15;101851.63;;;4.90;84.55
71344;BME280;59146;43.850;25.948;2023-01-15T05:06:41;101812.56;;;4.49;84.94
71344;BME280;59146;43.850;25.948;2023-01-15T05:09:06;101845.38;;;4.47;85.72
71344;BME280;59146;43.850;25.948;2023-01-15T05:11:36;101838.50;;;4.44;86.25
71344;BME280;59146;43.850;25.948;2023-01-15T05:14:02;101840.25;;;4.42;86.19
71344;BME280;59146;43.850;25.948;2023-01-15T05:16:27;101800.78;;;4.31;85.33
71344;BME280;59146;43.850;25.948;2023-01-15T05:18:59;101803.25;;;4.36;85.90
71344;BME280;59146;43.850;25.948;2023-01-15T05:21:29;101792.25;;;4.25;85.55
71344;BME280;59146;43.850;25.948;2023-01-15T05:23:57;101882.41;;;4.52;86.23
71344;BME280;59146;43.850;25.948;2023-01-15T05:26:24;101829.03;;;4.43;86.67
71344;BME280;59146;43.850;25.948;2023-01-15T05:28:52;101818.63;;;4.48;85.82
71344;BME280;59146;43.850;25.948;2023-01-15T05:31:18;101844.44;;;4.51;85.80
71344;BME280;59146;43.850;25.948;2023-01-15T05:33:44;101802.63;;;4.22;85.50
71344;BME280;59146;43.850;25.948;2023-01-15T05:36:13;101833.41;;;4.40;85.46
71344;BME280;59146;43.850;25.948;2023-01-15T05:38:39;101802.44;;;4.34;85.19
71344;BME280;59146;43.850;25.948;2023-01-15T05:41:10;101813.50;;;4.45;85.09
71344;BME280;59146;43.850;25.948;2023-01-15T05:43:55;101856.31;;;4.65;84.91
71344;BME280;59146;43.850;25.948;2023-01-15T05:46:21;101802.13;;;4.55;84.28
71344;BME280;59146;43.850;25.948;2023-01-15T05:48:47;101860.50;;;4.74;84.88
71344;BME280;59146;43.850;25.948;2023-01-15T05:51:13;101870.81;;;4.77;85.05
71344;BME280;59146;43.850;25.948;2023-01-15T05:53:38;101850.19;;;4.71;84.94
71344;BME280;59146;43.850;25.948;2023-01-15T05:56:04;101876.84;;;4.77;84.10
71344;BME280;59146;43.850;25.948;2023-01-15T05:58:30;101855.66;;;4.51;84.37
71344;BME280;59146;43.850;25.948;2023-01-15T06:00:55;101851.44;;;4.44;85.77
71344;BME280;59146;43.850;25.948;2023-01-15T06:03:22;101831.63;;;4.43;86.14
71344;BME280;59146;43.850;25.948;2023-01-15T06:05:51;101873.41;;;4.75;86.36
71344;BME280;59146;43.850;25.948;2023-01-15T06:08:16;101885.44;;;4.78;85.28
71344;BME280;59146;43.850;25.948;2023-01-15T06:10:46;101722.97;;;3.85;85.63
71344;BME280;59146;43.850;25.948;2023-01-15T06:13:12;101883.91;;;4.66;87.17
71344;BME280;59146;43.850;25.948;2023-01-15T06:15:39;101855.72;;;4.47;87.08
71344;BME280;59146;43.850;25.948;2023-01-15T06:18:05;101836.84;;;4.42;85.98
71344;BME280;59146;43.850;25.948;2023-01-15T06:20:30;101818.19;;;4.19;86.28
71344;BME280;59146;43.850;25.948;2023-01-15T06:22:55;101819.13;;;4.15;86.82
71344;BME280;59146;43.850;25.948;2023-01-15T06:25:21;101816.56;;;4.12;87.43
71344;BME280;59146;43.850;25.948;2023-01-15T06:27:46;101822.38;;;4.26;87.26
71344;BME280;59146;43.850;25.948;2023-01-15T06:30:14;101870.03;;;4.70;86.20
71344;BME280;59146;43.850;25.948;2023-01-15T06:32:39;101858.63;;;4.24;86.95
71344;BME280;59146;43.850;25.948;2023-01-15T06:35:05;101856.06;;;4.23;87.81
71344;BME280;59146;43.850;25.948;2023-01-15T06:37:30;101800.19;;;4.11;86.53
71344;BME280;59146;43.850;25.948;2023-01-15T06:39:56;101862.47;;;4.57;85.90
71344;BME280;59146;43.850;25.948;2023-01-15T06:42:21;101888.91;;;4.78;84.75
71344;BME280;59146;43.850;25.948;2023-01-15T06:45:05;101801.84;;;4.17;85.68
71344;BME280;59146;43.850;25.948;2023-01-15T06:47:49;101880.34;;;4.73;86.09
71344;BME280;59146;43.850;25.948;2023-01-15T06:50:15;101831.84;;;4.84;84.85
71344;BME280;59146;43.850;25.948;2023-01-15T06:52:40;101828.69;;;5.18;82.50
71344;BME280;59146;43.850;25.948;2023-01-15T06:55:06;101870.28;;;5.57;81.25
71344;BME280;59146;43.850;25.948;2023-01-15T06:57:32;101885.34;;;5.85;80.76
71344;BME280;59146;43.850;25.948;2023-01-15T06:59:57;101827.94;;;6.03;78.97
71344;BME280;59146;43.850;25.948;2023-01-15T07:02:23;101891.56;;;6.60;76.75
71344;BME280;59146;43.850;25.948;2023-01-15T07:04:48;101893.91;;;6.71;75.92
71344;BME280;59146;43.850;25.948;2023-01-15T07:07:15;101794.03;;;5.69;76.12
71344;BME280;59146;43.850;25.948;2023-01-15T07:09:41;101840.00;;;6.04;77.03
71344;BME280;59146;43.850;25.948;2023-01-15T07:12:06;101859.69;;;6.14;75.67
71344;BME280;59146;43.850;25.948;2023-01-15T07:14:32;101905.75;;;6.44;76.45
71344;BME280;59146;43.850;25.948;2023-01-15T07:16:57;101841.19;;;5.89;76.53
71344;BME280;59146;43.850;25.948;2023-01-15T07:19:23;101906.06;;;6.29;78.28
71344;BME280;59146;43.850;25.948;2023-01-15T07:21:49;101846.41;;;6.29;76.68
71344;BME280;59146;43.850;25.948;2023-01-15T07:24:16;101832.47;;;6.33;75.75
71344;BME280;59146;43.850;25.948;2023-01-15T07:26:42;101844.94;;;6.17;76.24
71344;BME280;59146;43.850;25.948;2023-01-15T07:29:07;101828.25;;;5.88;76.80
71344;BME280;59146;43.850;25.948;2023-01-15T07:31:33;101878.75;;;6.13;78.01
71344;BME280;59146;43.850;25.948;2023-01-15T07:33:59;101861.31;;;6.19;77.02
71344;BME280;59146;43.850;25.948;2023-01-15T07:36:24;101837.28;;;6.10;76.57
71344;BME280;59146;43.850;25.948;2023-01-15T07:38:50;101888.53;;;6.40;76.61
71344;BME280;59146;43.850;25.948;2023-01-15T07:41:16;101849.88;;;5.87;77.34
71344;BME280;59146;43.850;25.948;2023-01-15T07:44:00;101838.81;;;5.77;78.07
71344;BME280;59146;43.850;25.948;2023-01-15T07:46:44;101885.03;;;6.41;75.98
71344;BME280;59146;43.850;25.948;2023-01-15T07:49:28;101848.78;;;5.98;76.61
71344;BME280;59146;43.850;25.948;2023-01-15T07:52:18;101892.16;;;6.33;76.78
71344;BME280;59146;43.850;25.948;2023-01-15T07:54:48;101875.06;;;6.23;75.93
71344;BME280;59146;43.850;25.948;2023-01-15T07:57:16;101813.38;;;5.96;76.27
71344;BME280;59146;43.850;25.948;2023-01-15T07:59:42;101826.53;;;6.28;75.54
71344;BME280;59146;43.850;25.948;2023-01-15T08:02:07;101893.31;;;6.20;76.26
71344;BME280;59146;43.850;25.948;2023-01-15T08:04:33;101867.22;;;6.26;76.19
71344;BME280;59146;43.850;25.948;2023-01-15T08:07:00;101818.31;;;6.09;75.52
71344;BME280;59146;43.850;25.948;2023-01-15T08:09:26;101860.47;;;6.57;75.59
71344;BME280;59146;43.850;25.948;2023-01-15T08:11:51;101908.22;;;6.88;75.86
71344;BME280;59146;43.850;25.948;2023-01-15T08:14:35;101865.38;;;6.69;74.66
71344;BME280;59146;43.850;25.948;2023-01-15T08:17:20;101827.13;;;6.40;75.47
71344;BME280;59146;43.850;25.948;2023-01-15T08:19:45;101816.41;;;6.54;74.60
71344;BME280;59146;43.850;25.948;2023-01-15T08:22:11;101841.25;;;6.64;73.31
71344;BME280;59146;43.850;25.948;2023-01-15T08:24:36;101867.09;;;6.70;73.92
71344;BME280;59146;43.850;25.948;2023-01-15T08:27:02;101864.88;;;6.54;75.62
71344;BME280;59146;43.850;25.948;2023-01-15T08:29:28;101874.59;;;6.82;74.72
71344;BME280;59146;43.850;25.948;2023-01-15T08:31:53;101827.41;;;6.65;74.07
71344;BME280;59146;43.850;25.948;2023-01-15T08:34:19;101893.81;;;7.10;73.54
71344;BME280;59146;43.850;25.948;2023-01-15T08:36:44;101865.84;;;6.86;73.84
71344;BME280;59146;43.850;25.948;2023-01-15T08:39:10;101890.78;;;6.93;74.73
71344;BME280;59146;43.850;25.948;2023-01-15T08:41:36;101794.06;;;6.49;74.78
71344;BME280;59146;43.850;25.948;2023-01-15T08:44:01;101843.91;;;6.99;73.71
71344;BME280;59146;43.850;25.948;2023-01-15T08:46:26;101814.63;;;6.91;72.48
71344;BME280;59146;43.850;25.948;2023-01-15T08:48:52;101830.31;;;6.88;73.53
71344;BME280;59146;43.850;25.948;2023-01-15T08:51:18;101791.81;;;6.69;73.63
71344;BME280;59146;43.850;25.948;2023-01-15T08:53:44;101819.66;;;6.99;73.81
71344;BME280;59146;43.850;25.948;2023-01-15T08:56:17;101779.81;;;6.98;73.43
71344;BME280;59146;43.850;25.948;2023-01-15T08:58:44;101806.56;;;7.02;72.75
71344;BME280;59146;43.850;25.948;2023-01-15T09:01:10;101874.19;;;7.34;74.03
71344;BME280;59146;43.850;25.948;2023-01-15T09:03:40;101865.06;;;7.52;73.12
71344;BME280;59146;43.850;25.948;2023-01-15T09:06:05;101863.97;;;7.60;72.61
71344;BME280;59146;43.850;25.948;2023-01-15T09:08:31;101803.41;;;7.55;71.72
71344;BME280;59146;43.850;25.948;2023-01-15T09:11:01;101782.56;;;7.26;72.83
71344;BME280;59146;43.850;25.948;2023-01-15T09:13:28;101857.28;;;7.82;72.35
71344;BME280;59146;43.850;25.948;2023-01-15T09:15:58;101829.91;;;8.00;72.30
71344;BME280;59146;43.850;25.948;2023-01-15T09:18:24;101802.06;;;8.02;71.58
71344;BME280;59146;43.850;25.948;2023-01-15T09:20:49;101771.19;;;7.90;70.79
71344;BME280;59146;43.850;25.948;2023-01-15T09:23:15;101729.13;;;7.47;71.52
71344;BME280;59146;43.850;25.948;2023-01-15T09:25:56;101827.69;;;8.16;71.62
71344;BME280;59146;43.850;25.948;2023-01-15T09:28:22;101833.03;;;8.40;70.03
71344;BME280;59146;43.850;25.948;2023-01-15T09:30:48;101682.59;;;7.67;70.27
71344;BME280;59146;43.850;25.948;2023-01-15T09:33:14;101759.66;;;8.00;69.74
71344;BME280;59146;43.850;25.948;2023-01-15T09:35:41;101823.47;;;8.41;70.76
71344;BME280;59146;43.850;25.948;2023-01-15T09:38:10;101783.34;;;8.48;69.45
71344;BME280;59146;43.850;25.948;2023-01-15T09:46:11;101746.41;;;8.35;67.89
71344;BME280;59146;43.850;25.948;2023-01-15T09:52:07;101802.84;;;9.13;66.52
71344;BME280;59146;43.850;25.948;2023-01-15T09:57:10;101799.06;;;8.97;65.68
71344;BME280;59146;43.850;25.948;2023-01-15T09:59:40;101764.94;;;8.78;65.46
71344;BME280;59146;43.850;25.948;2023-01-15T10:02:29;101757.00;;;9.08;63.97
71344;BME280;59146;43.850;25.948;2023-01-15T10:05:37;101779.19;;;9.44;62.91
71344;BME280;59146;43.850;25.948;2023-01-15T10:08:10;101772.06;;;9.24;62.82
71344;BME280;59146;43.850;25.948;2023-01-15T10:13:42;101760.75;;;9.24;63.25
71344;BME280;59146;43.850;25.948;2023-01-15T10:16:10;101729.16;;;9.33;63.26
71344;BME280;59146;43.850;25.948;2023-01-15T10:18:37;101699.28;;;9.41;61.58
71344;BME280;59146;43.850;25.948;2023-01-15T10:21:30;101719.28;;;9.18;62.37
71344;BME280;59146;43.850;25.948;2023-01-15T10:24:21;101716.25;;;9.30;62.79
71344;BME280;59146;43.850;25.948;2023-01-15T10:26:56;101721.56;;;9.50;61.84
71344;BME280;59146;43.850;25.948;2023-01-15T10:34:52;101720.47;;;9.32;61.66
71344;BME280;59146;43.850;25.948;2023-01-15T10:45:35;101706.38;;;9.38;60.79
71344;BME280;59146;43.850;25.948;2023-01-15T10:50:38;101631.56;;;9.40;60.26
71344;BME280;59146;43.850;25.948;2023-01-15T10:53:10;101594.25;;;9.38;59.45
71344;BME280;59146;43.850;25.948;2023-01-15T10:55:41;101648.09;;;9.84;58.59
71344;BME280;59146;43.850;25.948;2023-01-15T11:00:54;101583.84;;;9.15;58.75
71344;BME280;59146;43.850;25.948;2023-01-15T11:03:35;101655.00;;;9.85;56.89
71344;BME280;59146;43.850;25.948;2023-01-15T11:06:01;101632.91;;;9.93;56.07
71344;BME280;59146;43.850;25.948;2023-01-15T11:08:26;101607.19;;;9.63;55.40
71344;BME280;59146;43.850;25.948;2023-01-15T11:10:56;101613.56;;;9.32;57.94
71344;BME280;59146;43.850;25.948;2023-01-15T11:13:24;101611.16;;;9.28;58.40
71344;BME280;59146;43.850;25.948;2023-01-15T11:16:14;101654.91;;;9.88;58.00
71344;BME280;59146;43.850;25.948;2023-01-15T11:19:36;101638.28;;;10.12;55.73
71344;BME280;59146;43.850;25.948;2023-01-15T11:22:11;101648.81;;;9.87;56.83
71344;BME280;59146;43.850;25.948;2023-01-15T11:24:51;101600.22;;;9.63;57.51
71344;BME280;59146;43.850;25.948;2023-01-15T11:27:21;101640.59;;;10.19;57.11
71344;BME280;59146;43.850;25.948;2023-01-15T11:29:56;101571.72;;;10.00;56.18
71344;BME280;59146;43.850;25.948;2023-01-15T11:35:09;101628.13;;;10.04;57.12
71344;BME280;59146;43.850;25.948;2023-01-15T11:37:37;101612.59;;;10.23;57.23
71344;BME280;59146;43.850;25.948;2023-01-15T11:40:03;101605.34;;;10.50;56.05
71344;BME280;59146;43.850;25.948;2023-01-15T11:42:35;101550.47;;;10.50;54.87
71344;BME280;59146;43.850;25.948;2023-01-15T11:45:21;101611.59;;;10.46;54.95
71344;BME280;59146;43.850;25.948;2023-01-15T11:48:23;101590.38;;;10.13;58.01
71344;BME280;59146;43.850;25.948;2023-01-15T11:53:39;101557.91;;;10.20;55.87
71344;BME280;59146;43.850;25.948;2023-01-15T11:56:08;101523.53;;;10.09;56.56
71344;BME280;59146;43.850;25.948;2023-01-15T11:58:41;101557.75;;;10.23;56.13
71344;BME280;59146;43.850;25.948;2023-01-15T12:01:11;101543.47;;;10.10;56.11
71344;BME280;59146;43.850;25.948;2023-01-15T12:03:40;101574.66;;;10.55;56.23
71344;BME280;59146;43.850;25.948;2023-01-15T12:06:08;101560.56;;;10.77;55.50
71344;BME280;59146;43.850;25.948;2023-01-15T12:14:46;101587.66;;;10.95;54.04
71344;BME280;59146;43.850;25.948;2023-01-15T12:26:30;101544.34;;;10.51;55.93
71344;BME280;59146;43.850;25.948;2023-01-15T12:32:03;101575.66;;;10.91;53.11
71344;BME280;59146;43.850;25.948;2023-01-15T12:34:52;101571.44;;;10.48;54.57
71344;BME280;59146;43.850;25.948;2023-01-15T12:37:22;101487.91;;;9.66;55.96
71344;BME280;59146;43.850;25.948;2023-01-15T12:39:54;101473.63;;;9.54;57.31
71344;BME280;59146;43.850;25.948;2023-01-15T12:42:23;101534.97;;;9.85;56.55
71344;BME280;59146;43.850;25.948;2023-01-15T12:45:12;101478.88;;;9.53;57.04
71344;BME280;59146;43.850;25.948;2023-01-15T12:47:48;101560.25;;;10.04;57.34
71344;BME280;59146;43.850;25.948;2023-01-15T13:01:54;101542.59;;;10.11;57.39
71344;BME280;59146;43.850;25.948;2023-01-15T13:04:52;101539.06;;;10.12;57.83
71344;BME280;59146;43.850;25.948;2023-01-15T13:07:34;101536.94;;;10.21;57.49
71344;BME280;59146;43.850;25.948;2023-01-15T13:10:12;101544.13;;;10.36;57.96
71344;BME280;59146;43.850;25.948;2023-01-15T13:12:39;101516.63;;;10.28;57.00
71344;BME280;59146;43.850;25.948;2023-01-15T13:15:05;101473.97;;;9.67;57.63
71344;BME280;59146;43.850;25.948;2023-01-15T13:17:41;101523.09;;;10.19;57.19
71344;BME280;59146;43.850;25.948;2023-01-15T13:25:26;101538.63;;;10.43;56.43
71344;BME280;59146;43.850;25.948;2023-01-15T13:28:04;101474.50;;;9.75;57.77
71344;BME280;59146;43.850;25.948;2023-01-15T13:30:41;101530.78;;;10.22;57.64
71344;BME280;59146;43.850;25.948;2023-01-15T13:33:31;101520.47;;;10.39;56.65
71344;BME280;59146;43.850;25.948;2023-01-15T13:36:14;101519.56;;;10.41;57.00
71344;BME280;59146;43.850;25.948;2023-01-15T13:38:44;101519.03;;;10.12;57.53
71344;BME280;59146;43.850;25.948;2023-01-15T13:41:20;101513.72;;;9.74;58.16
71344;BME280;59146;43.850;25.948;2023-01-15T13:44:30;101529.88;;;9.82;59.17
71344;BME280;59146;43.850;25.948;2023-01-15T13:49:33;101486.16;;;9.67;58.48
71344;BME280;59146;43.850;25.948;2023-01-15T13:52:00;101433.03;;;9.06;59.52
71344;BME280;59146;43.850;25.948;2023-01-15T13:54:30;101468.78;;;9.24;60.01
71344;BME280;59146;43.850;25.948;2023-01-15T13:57:18;101467.38;;;9.37;59.60
71344;BME280;59146;43.850;25.948;2023-01-15T13:59:46;101501.88;;;9.65;59.52
71344;BME280;59146;43.850;25.948;2023-01-15T14:02:36;101518.31;;;9.67;58.33
71344;BME280;59146;43.850;25.948;2023-01-15T14:07:58;101439.97;;;9.05;59.67
71344;BME280;59146;43.850;25.948;2023-01-15T14:10:35;101487.75;;;9.49;58.96
71344;BME280;59146;43.850;25.948;2023-01-15T14:21:40;101422.22;;;8.93;60.59
71344;BME280;59146;43.850;25.948;2023-01-15T14:27:13;101504.94;;;9.33;60.28
71344;BME280;59146;43.850;25.948;2023-01-15T14:33:07;101503.59;;;9.23;60.41
71344;BME280;59146;43.850;25.948;2023-01-15T14:35:40;101481.16;;;9.19;59.94
71344;BME280;59146;43.850;25.948;2023-01-15T14:38:16;101448.16;;;9.18;59.26
71344;BME280;59146;43.850;25.948;2023-01-15T14:41:02;101472.19;;;9.04;60.04
71344;BME280;59146;43.850;25.948;2023-01-15T14:43:32;101439.94;;;8.85;60.28
71344;BME280;59146;43.850;25.948;2023-01-15T14:48:49;101450.16;;;9.11;59.37
71344;BME280;59146;43.850;25.948;2023-01-15T14:51:22;101487.72;;;9.29;59.60
71344;BME280;59146;43.850;25.948;2023-01-15T14:53:52;101489.22;;;9.13;59.94
71344;BME280;59146;43.850;25.948;2023-01-15T15:01:43;101475.50;;;9.08;59.99
71344;BME280;59146;43.850;25.948;2023-01-15T15:06:57;101461.41;;;8.45;61.83
71344;BME280;59146;43.850;25.948;2023-01-15T15:15:14;101487.22;;;8.51;62.46